Time;durP1;ratioP1;P1;durP2;ratioP2;P2;SDS_P1;SDS_P2;PMS_P1;PMS_P2;Temp;Humidity;BMP_temperature;BMP_pressure;BME280_temperature;BME280_humidity;BME280_pressure;Samples;Min_cycle;Max_cycle;Signal;HPM_P1;HPM_P2
2023/10/23 00:01:08;;;;;;;4.43;1.75;;;11.50;99.90;;;;;;5074431;28;20050;-81
2023/10/23 00:03:34;;;;;;;6.53;2.13;;;11.30;99.90;;;;;;5073790;28;20028;-82
2023/10/23 00:05:59;;;;;;;3.53;1.77;;;11.10;99.90;;;;;;5074230;28;20024;-82
2023/10/23 00:08:25;;;;;;;4.03;2.00;;;11.10;99.90;;;;;;5074767;28;20029;-81
2023/10/23 00:10:51;;;;;;;5.03;2.08;;;11.20;99.90;;;;;;5074946;28;20058;-82
2023/10/23 00:13:16;;;;;;;3.90;1.90;;;11.20;99.90;;;;;;5073532;28;20077;-81
2023/10/23 00:15:42;;;;;;;4.40;2.10;;;11.20;99.90;;;;;;5074529;28;20035;-82
2023/10/23 00:18:08;;;;;;;4.00;1.95;;;11.20;99.90;;;;;;5074905;28;20476;-82
2023/10/23 00:20:33;;;;;;;3.80;2.00;;;11.10;99.90;;;;;;5073403;28;20423;-82
2023/10/23 00:22:59;;;;;;;2.78;1.67;;;11.10;99.90;;;;;;5074095;28;20066;-82
2023/10/23 00:25:25;;;;;;;4.50;1.85;;;11.00;99.90;;;;;;5074176;28;20024;-82
2023/10/23 00:27:50;;;;;;;5.82;2.15;;;10.90;99.90;;;;;;5073751;28;20024;-82
2023/10/23 00:30:16;;;;;;;5.72;2.25;;;10.80;99.90;;;;;;5073643;28;20040;-79
2023/10/23 00:32:41;;;;;;;5.18;1.90;;;10.80;99.90;;;;;;5073660;28;20480;-81
2023/10/23 00:35:07;;;;;;;4.68;1.98;;;10.70;99.90;;;;;;5073468;28;20484;-82
2023/10/23 00:37:34;;;;;;;3.75;2.03;;;10.60;99.90;;;;;;5074107;28;20098;-80
2023/10/23 00:40:00;;;;;;;6.72;2.10;;;10.60;99.90;;;;;;5073408;28;20024;-82
2023/10/23 00:42:25;;;;;;;6.10;2.38;;;10.60;99.90;;;;;;5072871;28;20492;-81
2023/10/23 00:44:51;;;;;;;3.22;1.73;;;10.40;99.90;;;;;;5073533;28;20040;-81
2023/10/23 00:47:18;;;;;;;4.22;1.83;;;10.40;99.90;;;;;;5074318;28;20068;-79
2023/10/23 00:49:44;;;;;;;3.38;1.67;;;10.30;99.90;;;;;;5073164;28;20037;-82
2023/10/23 00:52:10;;;;;;;4.60;2.22;;;10.30;99.90;;;;;;5082587;28;20069;-81
2023/10/23 00:54:37;;;;;;;2.95;1.75;;;10.30;99.90;;;;;;5092987;28;20024;-82
2023/10/23 00:57:03;;;;;;;3.17;1.58;;;10.40;99.90;;;;;;5093426;28;20028;-83
2023/10/23 00:59:30;;;;;;;2.70;1.90;;;10.50;99.90;;;;;;5093587;28;20054;-81
2023/10/23 01:01:56;;;;;;;5.55;1.67;;;10.60;99.90;;;;;;5093469;28;20054;-81
2023/10/23 01:04:22;;;;;;;6.47;1.77;;;10.60;99.90;;;;;;5093008;28;20020;-82
2023/10/23 01:06:50;;;;;;;6.13;1.63;;;10.60;99.90;;;;;;5093377;28;20028;-81
2023/10/23 01:09:16;;;;;;;3.08;1.67;;;10.50;99.90;;;;;;5093494;28;20028;-80
2023/10/23 01:11:41;;;;;;;1.95;1.40;;;10.50;99.90;;;;;;5089268;28;20084;-80
2023/10/23 01:14:07;;;;;;;2.90;1.90;;;10.50;99.90;;;;;;5081999;28;20406;-80
2023/10/23 01:16:32;;;;;;;4.07;1.98;;;10.30;99.90;;;;;;5081266;28;20024;-82
2023/10/23 01:18:58;;;;;;;3.55;1.90;;;10.20;99.90;;;;;;5077734;28;20035;-82
2023/10/23 01:21:24;;;;;;;5.28;1.95;;;10.10;99.90;;;;;;5081889;28;20094;-82
2023/10/23 01:23:50;;;;;;;4.57;1.73;;;10.30;99.90;;;;;;5083300;28;20069;-81
2023/10/23 01:26:16;;;;;;;4.03;1.52;;;10.30;99.90;;;;;;5083068;28;20031;-81
2023/10/23 01:28:42;;;;;;;2.90;1.67;;;10.40;99.90;;;;;;5081887;28;20020;-81
2023/10/23 01:31:07;;;;;;;3.88;1.88;;;10.40;99.90;;;;;;5083259;28;20428;-81
2023/10/23 01:33:34;;;;;;;4.80;1.80;;;10.40;99.90;;;;;;5100860;28;20099;-81
2023/10/23 01:35:59;;;;;;;3.00;1.92;;;10.40;99.90;;;;;;5095652;28;20552;-83
2023/10/23 01:38:25;;;;;;;8.15;2.20;;;10.40;99.90;;;;;;5092696;28;20062;-83
2023/10/23 01:40:51;;;;;;;5.32;1.52;;;10.40;99.90;;;;;;5092954;28;20377;-82
2023/10/23 01:43:16;;;;;;;5.43;2.00;;;10.30;99.90;;;;;;5092846;28;20457;-81
2023/10/23 01:45:42;;;;;;;4.82;1.80;;;10.30;99.90;;;;;;5092215;28;20028;-81
2023/10/23 01:48:07;;;;;;;4.05;1.70;;;10.30;99.90;;;;;;5092947;28;20066;-81
2023/10/23 01:50:33;;;;;;;2.92;1.85;;;10.20;99.90;;;;;;5092188;28;20040;-80
2023/10/23 01:52:58;;;;;;;4.90;1.80;;;10.10;99.90;;;;;;5092943;28;20081;-81
2023/10/23 01:55:25;;;;;;;3.83;1.70;;;9.90;99.90;;;;;;5107632;28;20030;-81
2023/10/23 01:57:50;;;;;;;6.03;1.83;;;9.90;99.90;;;;;;5113317;28;20076;-81
2023/10/23 02:00:16;;;;;;;4.70;1.75;;;9.90;99.90;;;;;;5113034;28;20429;-81
2023/10/23 02:02:42;;;;;;;4.70;1.42;;;10.00;99.90;;;;;;5112475;28;20027;-81
2023/10/23 02:05:07;;;;;;;1.92;1.25;;;9.90;99.90;;;;;;5114137;28;20085;-81
2023/10/23 02:07:33;;;;;;;2.78;1.30;;;9.90;99.90;;;;;;5113509;28;20433;-80
2023/10/23 02:10:00;;;;;;;3.97;1.50;;;9.90;99.90;;;;;;5112981;28;20148;-81
2023/10/23 02:12:26;;;;;;;4.93;2.20;;;10.00;99.90;;;;;;5111737;28;20031;-81
2023/10/23 02:14:52;;;;;;;4.45;1.55;;;10.10;99.90;;;;;;5093739;28;20028;-81
2023/10/23 02:17:18;;;;;;;2.90;1.23;;;10.00;99.90;;;;;;5093698;28;20114;-81
2023/10/23 02:19:45;;;;;;;3.05;1.40;;;10.00;99.90;;;;;;5092998;28;20511;-81
2023/10/23 02:22:10;;;;;;;5.00;1.45;;;9.90;99.90;;;;;;5093467;28;20025;-81
2023/10/23 02:24:36;;;;;;;2.80;1.70;;;9.90;99.90;;;;;;5092004;28;20037;-81
2023/10/23 02:27:02;;;;;;;2.55;1.40;;;9.90;99.90;;;;;;5093636;28;20024;-81
2023/10/23 02:29:28;;;;;;;3.78;1.13;;;9.80;99.90;;;;;;5091968;28;20030;-81
2023/10/23 02:31:54;;;;;;;1.42;1.10;;;9.80;99.90;;;;;;5093811;28;20028;-82
2023/10/23 02:34:19;;;;;;;6.03;1.30;;;9.80;99.90;;;;;;5092506;28;20028;-81
2023/10/23 02:36:46;;;;;;;5.32;1.33;;;9.80;99.90;;;;;;5093931;28;20465;-81
2023/10/23 02:39:11;;;;;;;2.15;1.15;;;9.70;99.90;;;;;;5096111;28;20024;-81
2023/10/23 02:41:37;;;;;;;3.47;1.20;;;9.80;99.90;;;;;;5095639;28;20032;-82
2023/10/23 02:44:03;;;;;;;3.63;1.30;;;9.80;99.90;;;;;;5095953;28;20027;-81
2023/10/23 02:46:28;;;;;;;3.58;1.10;;;9.80;99.90;;;;;;5095516;28;20085;-81
2023/10/23 02:48:54;;;;;;;3.38;1.17;;;9.70;99.90;;;;;;5096125;28;20055;-81
2023/10/23 02:51:19;;;;;;;3.85;1.15;;;9.70;99.90;;;;;;5096062;28;20040;-82
2023/10/23 02:53:45;;;;;;;4.65;1.05;;;9.60;99.90;;;;;;5096545;28;20051;-81
2023/10/23 02:56:14;;;;;;;3.20;1.20;;;9.60;99.90;;;;;;5095817;28;20035;-81
2023/10/23 02:58:40;;;;;;;1.92;1.20;;;9.70;99.90;;;;;;5096237;28;20021;-81
2023/10/23 03:01:20;;;;;;;4.30;1.10;;;9.70;99.90;;;;;;5096121;28;20504;-81
2023/10/23 03:03:49;;;;;;;2.38;1.00;;;9.70;99.90;;;;;;5095229;28;20028;-81
2023/10/23 03:06:14;;;;;;;4.28;1.52;;;9.80;99.90;;;;;;5096700;28;20028;-82
2023/10/23 03:08:40;;;;;;;4.10;1.65;;;9.70;99.90;;;;;;5096118;28;20041;-81
2023/10/23 03:11:06;;;;;;;1.75;1.02;;;9.70;99.90;;;;;;5096475;28;20093;-81
2023/10/23 03:13:32;;;;;;;2.53;0.98;;;9.60;99.90;;;;;;5094817;28;20048;-81
2023/10/23 03:15:58;;;;;;;2.97;1.13;;;9.50;99.90;;;;;;5095437;28;20066;-81
2023/10/23 03:18:23;;;;;;;2.58;0.98;;;9.50;99.90;;;;;;5095435;28;20028;-82
2023/10/23 03:20:49;;;;;;;2.70;1.20;;;9.50;99.90;;;;;;5095714;28;20050;-81
2023/10/23 03:23:14;;;;;;;2.47;1.48;;;9.50;99.90;;;;;;5096492;28;20078;-82
2023/10/23 03:25:42;;;;;;;3.38;1.05;;;9.40;99.90;;;;;;5094959;28;20020;-81
2023/10/23 03:28:08;;;;;;;3.25;1.17;;;9.40;99.90;;;;;;5095269;28;20461;-82
2023/10/23 03:30:33;;;;;;;6.40;1.67;;;9.40;99.90;;;;;;5094757;28;20039;-81
2023/10/23 03:32:59;;;;;;;2.13;1.08;;;9.40;99.90;;;;;;5095084;28;20382;-81
2023/10/23 03:35:25;;;;;;;4.70;1.40;;;9.50;99.90;;;;;;5095831;28;20117;-81
2023/10/23 03:37:50;;;;;;;2.50;0.98;;;9.40;99.90;;;;;;5094867;28;20058;-81
2023/10/23 03:40:16;;;;;;;2.78;1.08;;;9.50;99.90;;;;;;5095057;28;20032;-81
2023/10/23 03:42:41;;;;;;;3.08;1.08;;;9.60;99.90;;;;;;5094443;28;20016;-81
2023/10/23 03:45:07;;;;;;;4.57;1.15;;;9.50;99.90;;;;;;5094730;28;20028;-82
2023/10/23 03:47:33;;;;;;;2.17;1.27;;;9.50;99.90;;;;;;5094468;28;20119;-81
2023/10/23 03:49:58;;;;;;;1.75;1.35;;;9.60;99.90;;;;;;5094252;28;20127;-82
2023/10/23 03:52:24;;;;;;;1.33;0.95;;;9.60;99.90;;;;;;5094700;28;20378;-82
2023/10/23 03:54:49;;;;;;;2.10;1.00;;;9.60;99.90;;;;;;5094309;28;20047;-82
2023/10/23 03:57:15;;;;;;;2.97;1.00;;;9.60;99.90;;;;;;5095726;28;20024;-82
2023/10/23 03:59:44;;;;;;;2.25;0.90;;;9.60;99.90;;;;;;5093907;28;20024;-82
2023/10/23 04:02:09;;;;;;;2.20;1.05;;;9.60;99.90;;;;;;5094473;28;20024;-82
2023/10/23 04:04:35;;;;;;;3.83;1.10;;;9.50;99.90;;;;;;5093617;28;20043;-82
2023/10/23 04:07:00;;;;;;;3.75;1.02;;;9.50;99.90;;;;;;5095543;28;20031;-83
2023/10/23 04:09:30;;;;;;;3.00;1.17;;;9.50;99.90;;;;;;5094491;28;20548;-81
2023/10/23 04:11:55;;;;;;;1.30;1.00;;;9.50;99.90;;;;;;5094484;28;20039;-81
2023/10/23 04:14:21;;;;;;;2.42;1.23;;;9.50;99.90;;;;;;5094526;28;20020;-81
2023/10/23 04:16:46;;;;;;;4.60;0.90;;;9.50;99.90;;;;;;5093056;28;20085;-82
2023/10/23 04:19:12;;;;;;;3.50;1.27;;;9.50;99.90;;;;;;5095046;28;20039;-82
2023/10/23 04:21:39;;;;;;;3.60;1.20;;;9.50;99.90;;;;;;5093616;28;20167;-81
2023/10/23 04:24:06;;;;;;;2.28;1.20;;;9.40;99.90;;;;;;5094083;28;20020;-82
2023/10/23 04:26:32;;;;;;;2.85;1.02;;;9.30;99.90;;;;;;5093601;28;20028;-81
2023/10/23 04:28:58;;;;;;;1.58;0.98;;;9.30;99.90;;;;;;5094183;28;20050;-82
2023/10/23 04:31:23;;;;;;;3.80;1.00;;;9.30;99.90;;;;;;5095012;28;20043;-82
2023/10/23 04:33:49;;;;;;;6.15;1.27;;;9.30;99.90;;;;;;5094644;28;20024;-82
2023/10/23 04:36:14;;;;;;;2.85;1.25;;;9.30;99.90;;;;;;5094533;28;20048;-82
2023/10/23 04:38:40;;;;;;;2.25;1.05;;;9.30;99.90;;;;;;5093143;28;20020;-82
2023/10/23 04:41:05;;;;;;;2.45;0.95;;;9.20;99.90;;;;;;5093826;28;20028;-81
2023/10/23 04:43:33;;;;;;;2.28;1.02;;;9.20;99.90;;;;;;5093163;28;20062;-81
2023/10/23 04:45:58;;;;;;;3.33;1.17;;;9.20;99.90;;;;;;5093550;28;20078;-82
2023/10/23 04:48:24;;;;;;;2.45;1.00;;;9.20;99.90;;;;;;5093546;28;20024;-82
2023/10/23 04:50:50;;;;;;;4.30;1.50;;;9.10;99.90;;;;;;5093093;28;20032;-82
2023/10/23 04:53:15;;;;;;;2.33;1.00;;;9.00;99.90;;;;;;5094265;28;20055;-82
2023/10/23 04:55:41;;;;;;;2.28;1.25;;;9.00;99.90;;;;;;5093081;28;20027;-82
2023/10/23 04:58:08;;;;;;;2.88;1.20;;;9.10;99.90;;;;;;5093271;28;20028;-82
2023/10/23 05:00:38;;;;;;;3.88;1.45;;;9.10;99.90;;;;;;5093754;28;20115;-82
2023/10/23 05:03:04;;;;;;;2.90;1.15;;;9.10;99.90;;;;;;5093314;28;20496;-82
2023/10/23 05:05:33;;;;;;;3.85;1.35;;;9.10;99.90;;;;;;5093271;28;20024;-82
2023/10/23 05:08:00;;;;;;;3.15;1.02;;;9.10;99.90;;;;;;5093373;28;20028;-82
2023/10/23 05:10:25;;;;;;;3.60;1.33;;;9.20;99.90;;;;;;5094093;28;20032;-82
2023/10/23 05:12:51;;;;;;;4.53;1.45;;;9.10;99.90;;;;;;5092575;28;20123;-82
2023/10/23 05:15:17;;;;;;;2.60;1.10;;;9.10;99.90;;;;;;5094188;28;20461;-82
2023/10/23 05:17:43;;;;;;;1.67;1.00;;;9.10;99.90;;;;;;5092643;28;20028;-82
2023/10/23 05:20:09;;;;;;;1.80;1.17;;;9.10;99.90;;;;;;5094176;28;20030;-82
2023/10/23 05:22:34;;;;;;;2.67;1.38;;;9.10;99.90;;;;;;5092605;28;20114;-81
2023/10/23 05:25:00;;;;;;;6.50;1.45;;;9.10;99.90;;;;;;5094194;28;20020;-83
2023/10/23 05:27:26;;;;;;;5.43;1.30;;;9.00;99.90;;;;;;5094018;28;20037;-82
2023/10/23 05:29:52;;;;;;;7.72;1.65;;;9.10;99.90;;;;;;5092152;28;20063;-82
2023/10/23 05:32:17;;;;;;;2.58;1.65;;;9.10;99.90;;;;;;5092741;28;20484;-83
2023/10/23 05:34:44;;;;;;;2.38;1.40;;;9.00;99.90;;;;;;5093490;28;20035;-82
2023/10/23 05:37:10;;;;;;;6.28;1.65;;;9.00;99.90;;;;;;5092271;28;20070;-83
2023/10/23 05:39:36;;;;;;;5.68;1.60;;;8.90;99.90;;;;;;5091965;28;20032;-82
2023/10/23 05:42:02;;;;;;;4.00;1.27;;;8.90;99.90;;;;;;5093143;28;20035;-82
2023/10/23 05:44:27;;;;;;;2.95;1.65;;;9.00;99.90;;;;;;5093842;28;20026;-82
2023/10/23 05:46:53;;;;;;;3.33;1.55;;;8.90;99.90;;;;;;5092572;28;20119;-82
2023/10/23 05:49:19;;;;;;;3.60;1.60;;;8.90;99.90;;;;;;5094028;28;20028;-82
2023/10/23 05:51:44;;;;;;;2.80;1.25;;;8.80;99.90;;;;;;5092111;28;20046;-81
2023/10/23 05:54:10;;;;;;;4.22;1.60;;;8.80;99.90;;;;;;5093263;28;20024;-82
2023/10/23 05:56:36;;;;;;;2.22;1.70;;;8.80;99.90;;;;;;5093140;28;20068;-80
2023/10/23 05:59:03;;;;;;;6.55;2.38;;;8.70;99.90;;;;;;5092901;28;20024;-82
2023/10/23 06:01:29;;;;;;;5.45;1.52;;;8.80;99.90;;;;;;5092607;28;20051;-81
2023/10/23 06:03:55;;;;;;;4.28;1.60;;;8.80;99.90;;;;;;5092434;28;20195;-81
2023/10/23 06:06:21;;;;;;;5.68;2.08;;;8.80;99.90;;;;;;5093015;28;20030;-82
2023/10/23 06:08:46;;;;;;;2.97;1.50;;;8.80;99.90;;;;;;5093211;28;20476;-82
2023/10/23 06:11:12;;;;;;;3.33;1.65;;;8.70;99.90;;;;;;5094007;28;20039;-82
2023/10/23 06:13:38;;;;;;;4.45;1.67;;;8.70;99.90;;;;;;5096154;28;20039;-81
2023/10/23 06:16:05;;;;;;;3.45;1.40;;;8.70;99.90;;;;;;5096221;28;20516;-81
2023/10/23 06:18:35;;;;;;;4.85;1.48;;;8.60;99.90;;;;;;5096539;28;20062;-82
2023/10/23 06:21:05;;;;;;;2.67;1.70;;;8.60;99.90;;;;;;5095901;28;20059;-82
2023/10/23 06:23:39;;;;;;;4.32;1.77;;;8.60;99.90;;;;;;5096302;28;20028;-82
2023/10/23 06:26:06;;;;;;;4.50;1.80;;;8.60;99.90;;;;;;5096435;28;20024;-82
2023/10/23 06:28:33;;;;;;;10.90;2.97;;;8.60;99.90;;;;;;5097601;28;20028;-83
2023/10/23 06:31:05;;;;;;;4.28;1.73;;;8.60;99.90;;;;;;5095853;28;20028;-82
2023/10/23 06:33:30;;;;;;;;;;;8.60;99.90;;;;;;5096787;28;20111;-82
2023/10/23 06:35:57;;;;;;;6.28;2.20;;;8.60;99.90;;;;;;5095578;28;20252;-82
2023/10/23 06:38:23;;;;;;;4.28;1.70;;;8.70;99.90;;;;;;5096086;28;20123;-82
2023/10/23 06:40:48;;;;;;;5.60;1.40;;;8.70;99.90;;;;;;5095558;28;20063;-82
2023/10/23 06:43:14;;;;;;;3.97;1.88;;;8.70;99.90;;;;;;5096129;28;20028;-82
2023/10/23 06:45:40;;;;;;;2.80;1.83;;;8.70;99.90;;;;;;5094978;28;20521;-82
2023/10/23 06:48:05;;;;;;;4.13;1.80;;;8.80;99.90;;;;;;5096055;28;20032;-82
2023/10/23 06:50:31;;;;;;;5.43;1.90;;;8.80;99.90;;;;;;5096905;28;20538;-82
2023/10/23 06:52:56;;;;;;;9.05;2.17;;;8.80;99.90;;;;;;5096465;28;20020;-81
2023/10/23 06:55:24;;;;;;;5.80;1.88;;;8.90;99.90;;;;;;5096217;28;20059;-82
2023/10/23 06:57:50;;;;;;;4.38;1.90;;;9.00;99.90;;;;;;5095354;28;20108;-81
2023/10/23 07:00:16;;;;;;;4.63;2.33;;;9.00;99.90;;;;;;5096441;28;20423;-82
2023/10/23 07:02:41;;;;;;;3.72;1.73;;;9.00;99.90;;;;;;5095332;28;20024;-82
2023/10/23 07:05:07;;;;;;;5.53;2.15;;;9.00;99.90;;;;;;5095882;28;20023;-81
2023/10/23 07:07:33;;;;;;;5.47;2.00;;;9.10;99.90;;;;;;5095779;28;20056;-81
2023/10/23 07:09:59;;;;;;;6.50;2.30;;;9.10;99.90;;;;;;5095081;28;20386;-81
2023/10/23 07:12:25;;;;;;;4.93;2.10;;;9.10;99.90;;;;;;5096735;28;20496;-82
2023/10/23 07:14:50;;;;;;;4.97;1.77;;;9.20;99.90;;;;;;5096364;28;20028;-80
2023/10/23 07:17:16;;;;;;;7.13;1.95;;;9.20;99.90;;;;;;5096802;28;20473;-80
2023/10/23 07:19:42;;;;;;;3.45;2.05;;;9.20;99.90;;;;;;5095737;28;20016;-80
2023/10/23 07:22:08;;;;;;;3.42;1.95;;;9.30;99.90;;;;;;5094709;28;20043;-80
2023/10/23 07:24:33;;;;;;;3.63;1.90;;;9.30;99.90;;;;;;5095236;28;20059;-82
2023/10/23 07:26:59;;;;;;;3.08;1.85;;;9.30;99.90;;;;;;5094654;28;20035;-81
2023/10/23 07:29:25;;;;;;;7.80;2.10;;;9.30;99.90;;;;;;5091351;28;20084;-81
2023/10/23 07:31:50;;;;;;;4.53;2.05;;;9.40;99.90;;;;;;5074401;28;20497;-80
2023/10/23 07:34:16;;;;;;;5.50;2.35;;;9.40;99.90;;;;;;5074688;28;20115;-81
2023/10/23 07:36:41;;;;;;;7.18;2.25;;;9.50;99.90;;;;;;5085279;28;20432;-78
2023/10/23 07:39:08;;;;;;;4.50;2.28;;;9.50;99.90;;;;;;5095147;28;20024;-80
2023/10/23 07:41:33;;;;;;;4.20;1.80;;;9.60;99.90;;;;;;5095360;28;20067;-81
2023/10/23 07:43:59;;;;;;;3.70;2.22;;;9.60;99.90;;;;;;5094348;28;20024;-81
2023/10/23 07:46:24;;;;;;;7.60;2.20;;;9.70;99.90;;;;;;5094633;28;20439;-81
2023/10/23 07:48:50;;;;;;;4.05;2.10;;;9.80;99.90;;;;;;5087976;28;20060;-81
2023/10/23 07:51:16;;;;;;;2.80;2.13;;;9.80;99.90;;;;;;5091768;28;20055;-81
2023/10/23 07:53:42;;;;;;;6.35;2.80;;;9.90;99.90;;;;;;5094817;28;20473;-79
2023/10/23 07:56:07;;;;;;;2.65;1.92;;;9.90;99.90;;;;;;5094775;28;20477;-81
2023/10/23 07:58:33;;;;;;;6.30;2.22;;;9.90;99.90;;;;;;5094142;28;20038;-81
2023/10/23 08:01:06;;;;;;;7.90;2.78;;;10.00;99.90;;;;;;5094936;28;20028;-81
2023/10/23 08:03:33;;;;;;;5.93;2.40;;;10.00;99.90;;;;;;5095700;28;20028;-82
2023/10/23 08:06:03;;;;;;;4.43;2.28;;;10.10;99.90;;;;;;5095055;28;20024;-83
2023/10/23 08:08:31;;;;;;;4.93;2.33;;;10.10;99.90;;;;;;5094269;28;20045;-81
2023/10/23 08:10:56;;;;;;;5.80;2.60;;;10.10;99.90;;;;;;5093731;28;20044;-81
2023/10/23 08:13:22;;;;;;;9.90;2.30;;;10.10;99.90;;;;;;5094607;28;20029;-81
2023/10/23 08:15:47;;;;;;;7.55;2.33;;;10.20;99.90;;;;;;5093558;28;20050;-80
2023/10/23 08:18:13;;;;;;;6.90;2.55;;;10.20;99.90;;;;;;5094327;28;20028;-81
2023/10/23 08:20:38;;;;;;;6.32;2.45;;;10.20;99.90;;;;;;5095346;28;20024;-81
2023/10/23 08:23:04;;;;;;;3.95;2.25;;;10.20;99.90;;;;;;5094676;28;20024;-80
2023/10/23 08:25:29;;;;;;;3.83;2.58;;;10.30;99.90;;;;;;5094144;28;20028;-81
2023/10/23 08:27:55;;;;;;;7.50;2.65;;;10.30;99.90;;;;;;5093618;28;20023;-80
2023/10/23 08:30:21;;;;;;;4.43;2.70;;;10.40;99.90;;;;;;5094323;28;20071;-81
2023/10/23 08:32:46;;;;;;;5.63;2.53;;;10.40;99.90;;;;;;5094385;28;20032;-81
2023/10/23 08:35:12;;;;;;;5.22;2.40;;;10.40;99.90;;;;;;5093242;28;20450;-82
2023/10/23 08:37:38;;;;;;;6.40;2.70;;;10.50;99.90;;;;;;5094100;28;20027;-82
2023/10/23 08:40:06;;;;;;;6.55;2.58;;;10.60;99.90;;;;;;5090715;28;20027;-82
2023/10/23 08:42:33;;;;;;;4.63;2.45;;;10.60;99.90;;;;;;5094812;28;20432;-82
2023/10/23 08:44:59;;;;;;;7.72;2.53;;;10.70;99.90;;;;;;5108626;28;20031;-81
2023/10/23 08:47:25;;;;;;;2.90;2.05;;;10.70;99.90;;;;;;5094742;28;20135;-82
2023/10/23 08:49:52;;;;;;;5.22;1.90;;;10.70;99.90;;;;;;5092604;28;20028;-83
2023/10/23 08:52:20;;;;;;;7.07;2.20;;;10.80;99.90;;;;;;5092406;28;20020;-81
2023/10/23 08:54:46;;;;;;;5.07;2.35;;;10.90;99.90;;;;;;5106363;28;20096;-81
2023/10/23 08:57:12;;;;;;;7.05;2.20;;;10.80;99.90;;;;;;5112755;28;20028;-82
2023/10/23 08:59:41;;;;;;;4.10;2.47;;;10.90;99.90;;;;;;5093540;28;20023;-81
2023/10/23 09:02:08;;;;;;;8.60;2.17;;;10.90;99.90;;;;;;5100093;28;20031;-81
2023/10/23 09:04:34;;;;;;;4.90;2.30;;;11.00;99.90;;;;;;5101172;28;20389;-81
2023/10/23 09:07:00;;;;;;;4.43;2.22;;;11.10;99.90;;;;;;5107371;28;20028;-81
2023/10/23 09:09:26;;;;;;;4.60;2.03;;;11.10;99.90;;;;;;5092363;28;20024;-79
2023/10/23 09:11:52;;;;;;;4.88;1.80;;;11.20;99.90;;;;;;5091136;28;20031;-79
2023/10/23 09:14:25;;;;;;;4.53;2.05;;;11.30;99.90;;;;;;5103239;28;20027;-79
2023/10/23 09:16:52;;;;;;;4.10;2.22;;;11.30;99.90;;;;;;5105588;28;20034;-78
2023/10/23 09:19:26;;;;;;;5.10;2.05;;;11.40;99.90;;;;;;5096792;28;20372;-79
2023/10/23 09:21:57;;;;;;;5.30;2.15;;;11.40;99.90;;;;;;5107582;28;20027;-78
2023/10/23 09:24:23;;;;;;;5.45;2.15;;;11.50;99.90;;;;;;5101949;28;20030;-78
2023/10/23 09:26:52;;;;;;;5.85;2.33;;;11.50;99.90;;;;;;5097948;28;20082;-78
2023/10/23 09:29:25;;;;;;;3.67;2.10;;;11.60;99.90;;;;;;5109787;28;20027;-78
2023/10/23 09:31:54;;;;;;;4.65;1.80;;;11.70;99.90;;;;;;5096901;28;20143;-78
2023/10/23 09:34:21;;;;;;;4.63;2.15;;;11.70;99.90;;;;;;5103949;28;20024;-79
2023/10/23 09:36:50;;;;;;;4.32;1.70;;;11.80;99.90;;;;;;5092064;28;20063;-77
2023/10/23 09:39:16;;;;;;;5.15;1.73;;;11.80;99.90;;;;;;5092664;28;20052;-79
2023/10/23 09:41:42;;;;;;;4.95;1.88;;;11.80;99.90;;;;;;5091571;28;20503;-79
2023/10/23 09:44:09;;;;;;;5.13;2.13;;;11.90;99.90;;;;;;5103912;28;20031;-79
2023/10/23 09:46:36;;;;;;;6.35;1.88;;;11.90;99.90;;;;;;5107150;28;20039;-79
2023/10/23 09:49:04;;;;;;;5.82;1.88;;;12.00;99.90;;;;;;5101839;28;20028;-79
2023/10/23 09:51:37;;;;;;;6.05;2.10;;;12.00;99.90;;;;;;5112732;28;20036;-80
2023/10/23 09:54:17;;;;;;;5.63;1.70;;;12.00;99.90;;;;;;5103987;28;20061;-78
2023/10/23 09:56:51;;;;;;;5.90;1.98;;;12.10;99.90;;;;;;5103322;28;20040;-78
2023/10/23 09:59:24;;;;;;;3.33;1.70;;;12.10;99.90;;;;;;5112860;28;20059;-80
2023/10/23 10:01:50;;;;;;;4.60;2.20;;;12.20;99.90;;;;;;5102326;28;20026;-80
2023/10/23 10:04:59;;;;;;;4.78;1.60;;;12.10;99.90;;;;;;5108556;28;20031;-79
2023/10/23 10:07:56;;;;;;;4.57;1.80;;;12.20;99.90;;;;;;5072737;28;20032;-79
2023/10/23 10:10:23;;;;;;;5.00;1.60;;;12.20;99.90;;;;;;5107075;28;20024;-79
2023/10/23 10:12:49;;;;;;;6.60;2.00;;;12.30;99.90;;;;;;5110107;28;20041;-80
2023/10/23 10:15:16;;;;;;;15.48;3.40;;;12.30;99.90;;;;;;5099541;28;20039;-80
2023/10/23 10:17:43;;;;;;;6.10;2.00;;;12.30;99.90;;;;;;5112243;28;20072;-81
2023/10/23 10:20:10;;;;;;;4.40;1.90;;;12.40;99.90;;;;;;5078601;28;20031;-81
2023/10/23 10:22:39;;;;;;;4.28;1.48;;;12.40;99.90;;;;;;5076004;28;20113;-81
2023/10/23 10:25:07;;;;;;;6.70;1.60;;;12.50;99.90;;;;;;5075733;28;20024;-82
2023/10/23 10:27:33;;;;;;;4.22;1.65;;;12.50;99.90;;;;;;5076007;28;20043;-82
2023/10/23 10:30:00;;;;;;;9.50;1.83;;;12.60;99.90;;;;;;5075252;28;20473;-82
2023/10/23 10:32:26;;;;;;;3.65;1.50;;;12.60;99.90;;;;;;5076123;28;20024;-82
2023/10/23 10:34:53;;;;;;;3.00;1.52;;;12.70;99.90;;;;;;5075497;28;20519;-82
2023/10/23 10:37:22;;;;;;;5.20;1.60;;;12.70;99.90;;;;;;5076030;28;20047;-81
2023/10/23 10:39:48;;;;;;;10.30;2.40;;;12.70;99.90;;;;;;5077060;28;20027;-82
2023/10/23 10:42:22;;;;;;;4.38;1.85;;;12.80;99.90;;;;;;5075888;28;20096;-81
2023/10/23 10:45:17;;;;;;;3.97;1.20;;;12.80;99.90;;;;;;5075976;28;20024;-82
2023/10/23 10:47:48;;;;;;;4.43;1.25;;;12.80;99.90;;;;;;5074504;28;20044;-83
2023/10/23 10:50:33;;;;;;;4.85;1.20;;;12.90;99.90;;;;;;5075060;28;20032;-82
2023/10/23 10:53:04;;;;;;;4.90;1.30;;;12.90;99.90;;;;;;5075279;28;20024;-82
2023/10/23 10:55:30;;;;;;;3.90;1.40;;;12.90;99.90;;;;;;5076050;28;20440;-83
2023/10/23 10:57:58;;;;;;;4.43;1.40;;;12.90;99.90;;;;;;5074309;28;20024;-83
2023/10/23 11:00:24;;;;;;;3.03;1.20;;;13.00;99.90;;;;;;5076602;28;20169;-83
2023/10/23 11:02:49;;;;;;;4.10;1.30;;;13.10;99.90;;;;;;5075536;28;20503;-83
2023/10/23 11:05:15;;;;;;;4.10;1.10;;;13.10;99.90;;;;;;5076272;28;20028;-83
2023/10/23 11:07:41;;;;;;;2.80;1.73;;;13.20;99.90;;;;;;5075621;28;20470;-82
2023/10/23 11:10:10;;;;;;;4.53;1.25;;;13.20;99.90;;;;;;5075000;28;20032;-83
2023/10/23 11:12:35;;;;;;;4.95;1.00;;;13.20;99.90;;;;;;5076495;28;20366;-82
2023/10/23 11:15:04;;;;;;;4.32;1.20;;;13.30;99.90;;;;;;5075841;28;20035;-82
2023/10/23 11:17:30;;;;;;;3.60;1.10;;;13.30;99.90;;;;;;5075166;28;20075;-82
2023/10/23 11:19:56;;;;;;;4.10;1.20;;;13.30;99.90;;;;;;5074366;28;20409;-82
2023/10/23 11:22:21;;;;;;;5.57;1.25;;;13.40;99.90;;;;;;5076268;28;20056;-82
2023/10/23 11:24:47;;;;;;;3.40;1.00;;;13.50;99.90;;;;;;5075107;28;20028;-83
2023/10/23 11:27:13;;;;;;;3.35;1.00;;;13.60;99.90;;;;;;5074782;28;20020;-82
2023/10/23 11:29:48;;;;;;;2.05;1.13;;;13.70;99.90;;;;;;5076273;28;20032;-82
2023/10/23 11:32:15;;;;;;;3.15;1.00;;;13.70;99.90;;;;;;5075634;28;20029;-82
2023/10/23 11:34:41;;;;;;;2.63;0.93;;;13.70;99.90;;;;;;5076177;28;20032;-82
2023/10/23 11:37:08;;;;;;;2.80;1.10;;;13.70;99.90;;;;;;5073755;28;20052;-83
2023/10/23 11:39:39;;;;;;;3.28;1.00;;;13.70;99.90;;;;;;5074879;28;20029;-82
2023/10/23 11:42:06;;;;;;;2.90;1.08;;;13.80;99.90;;;;;;5074568;28;20024;-82
2023/10/23 11:44:36;;;;;;;4.38;1.55;;;13.70;99.90;;;;;;5075899;28;20024;-82
2023/10/23 11:47:07;;;;;;;3.20;1.00;;;13.80;99.90;;;;;;5074235;28;20033;-82
2023/10/23 11:49:33;;;;;;;2.30;1.00;;;13.80;99.90;;;;;;5075066;28;20025;-83
2023/10/23 11:52:00;;;;;;;4.70;1.42;;;13.80;99.90;;;;;;5074344;28;20033;-82
2023/10/23 11:54:26;;;;;;;2.75;1.10;;;13.80;99.90;;;;;;5074905;28;20056;-82
2023/10/23 11:56:58;;;;;;;2.38;1.05;;;13.80;99.90;;;;;;5074644;28;20488;-83
2023/10/23 11:59:25;;;;;;;4.18;1.27;;;13.80;99.90;;;;;;5074647;28;20138;-82
2023/10/23 12:01:52;;;;;;;4.55;1.20;;;13.80;99.90;;;;;;5075290;28;20116;-82
2023/10/23 12:04:18;;;;;;;3.65;1.20;;;13.80;99.90;;;;;;5073832;28;20457;-82
2023/10/23 12:06:44;;;;;;;2.67;0.90;;;13.80;99.90;;;;;;5074446;28;20027;-83
2023/10/23 12:09:10;;;;;;;8.88;1.48;;;13.70;99.90;;;;;;5073838;28;20035;-83
2023/10/23 12:11:36;;;;;;;2.40;1.50;;;13.70;99.90;;;;;;5075370;28;20067;-82
2023/10/23 12:14:02;;;;;;;5.05;1.10;;;13.70;99.90;;;;;;5074775;28;20028;-82
2023/10/23 12:16:30;;;;;;;2.70;0.85;;;13.80;99.90;;;;;;5074849;28;20056;-83
2023/10/23 12:18:56;;;;;;;2.92;1.10;;;13.80;99.90;;;;;;5073598;28;20033;-81
2023/10/23 12:21:22;;;;;;;5.03;1.25;;;13.80;99.90;;;;;;5075026;28;20051;-82
2023/10/23 12:23:48;;;;;;;4.57;1.42;;;13.70;99.90;;;;;;5074107;28;20366;-83
2023/10/23 12:26:13;;;;;;;2.25;1.10;;;13.80;99.90;;;;;;5074651;28;20058;-83
2023/10/23 12:28:39;;;;;;;3.28;1.60;;;13.80;99.90;;;;;;5075071;28;20032;-82
2023/10/23 12:31:05;;;;;;;5.45;1.10;;;13.90;99.90;;;;;;5074568;28;20112;-82
2023/10/23 12:33:31;;;;;;;4.55;1.35;;;13.90;99.90;;;;;;5075046;28;20027;-82
2023/10/23 12:36:00;;;;;;;3.30;1.30;;;13.90;99.90;;;;;;5074534;28;20082;-82
2023/10/23 12:38:26;;;;;;;2.85;1.15;;;13.80;99.90;;;;;;5074863;28;20020;-82
2023/10/23 12:40:52;;;;;;;5.78;1.42;;;13.80;99.90;;;;;;5073505;28;20476;-81
2023/10/23 12:43:18;;;;;;;3.45;1.25;;;13.70;99.90;;;;;;5074101;28;20033;-82
2023/10/23 12:45:43;;;;;;;2.53;0.93;;;13.70;99.90;;;;;;5074723;28;20052;-82
2023/10/23 12:48:10;;;;;;;3.97;1.38;;;13.70;99.90;;;;;;5072956;28;20116;-82
2023/10/23 12:50:36;;;;;;;4.22;1.23;;;13.70;99.90;;;;;;5073385;28;20032;-82